createdAt,value
2023-07-08T00:00:11.305Z,3.80
2023-07-08T00:01:02.408Z,4.10
2023-07-08T00:01:55.755Z,3.53
2023-07-08T00:03:37.653Z,4.55
2023-07-08T00:04:28.438Z,4.07
2023-07-08T00:05:21.525Z,4.38
2023-07-08T00:06:16.949Z,4.25
2023-07-08T00:07:14.024Z,4.28
2023-07-08T00:08:05.204Z,3.88
2023-07-08T00:08:56.862Z,4.35
2023-07-08T00:09:47.741Z,4.00
2023-07-08T00:10:38.648Z,4.00
2023-07-08T00:11:30.093Z,3.90
2023-07-08T00:12:21.245Z,4.60
2023-07-08T00:13:12.199Z,4.55
2023-07-08T00:14:05.636Z,4.43
2023-07-08T00:14:56.554Z,4.78
2023-07-08T00:15:47.370Z,3.90
2023-07-08T00:16:38.136Z,3.83
2023-07-08T00:17:28.866Z,3.70
2023-07-08T00:18:20.095Z,3.33
2023-07-08T00:19:11.379Z,3.20
2023-07-08T00:20:02.377Z,3.08
2023-07-08T00:20:53.264Z,3.22
2023-07-08T00:21:44.161Z,3.20
2023-07-08T00:22:37.349Z,3.70
2023-07-08T00:23:28.081Z,3.33
2023-07-08T00:24:18.922Z,3.60
2023-07-08T00:25:10.040Z,2.90
2023-07-08T00:26:01.078Z,3.70
2023-07-08T00:26:51.792Z,4.38
2023-07-08T00:28:36.684Z,3.90
2023-07-08T00:29:27.491Z,3.20
2023-07-08T00:30:23.849Z,3.75
2023-07-08T00:31:15.236Z,3.00
2023-07-08T00:32:15.732Z,3.00
2023-07-08T00:33:07.700Z,3.25
2023-07-08T00:33:59.019Z,3.30
2023-07-08T00:34:49.808Z,3.40
2023-07-08T00:35:45.491Z,2.88
2023-07-08T00:36:36.694Z,3.13
2023-07-08T00:37:30.855Z,3.60
2023-07-08T00:38:30.099Z,3.20
2023-07-08T00:39:21.142Z,3.25
2023-07-08T00:40:26.429Z,3.35
2023-07-08T00:41:36.556Z,2.92
2023-07-08T00:42:27.923Z,2.70
2023-07-08T00:43:24.176Z,3.22
2023-07-08T00:44:14.834Z,3.33
2023-07-08T00:45:18.010Z,3.50
2023-07-08T00:47:12.894Z,2.95
2023-07-08T00:48:23.528Z,2.90
2023-07-08T00:49:29.857Z,3.80
2023-07-08T00:50:21.023Z,3.60
2023-07-08T00:51:13.321Z,3.00
2023-07-08T00:52:22.687Z,3.25
2023-07-08T00:53:34.071Z,3.30
2023-07-08T00:54:25.082Z,3.55
2023-07-08T00:55:16.065Z,3.17
2023-07-08T00:56:06.886Z,3.22
2023-07-08T00:57:03.285Z,3.28
2023-07-08T00:57:54.108Z,3.50
2023-07-08T00:59:05.135Z,3.30
2023-07-08T01:00:05.512Z,3.20
2023-07-08T01:00:58.295Z,3.50
2023-07-08T01:01:50.607Z,3.70
2023-07-08T01:02:48.656Z,3.42
2023-07-08T01:04:07.464Z,4.25
2023-07-08T01:05:15.680Z,3.70
2023-07-08T01:06:07.661Z,2.95
2023-07-08T01:07:04.359Z,3.63
2023-07-08T01:08:01.399Z,3.53
2023-07-08T01:08:55.154Z,3.60
2023-07-08T01:09:47.810Z,3.83
2023-07-08T01:11:03.179Z,3.83
2023-07-08T01:11:57.857Z,4.32
2023-07-08T01:12:54.323Z,4.63
2023-07-08T01:13:45.732Z,4.28
2023-07-08T01:14:38.762Z,4.10
2023-07-08T01:15:36.221Z,3.85
2023-07-08T01:16:27.155Z,4.18
2023-07-08T01:17:18.745Z,4.15
2023-07-08T01:18:11.161Z,4.70
2023-07-08T01:19:03.701Z,3.83
2023-07-08T01:19:56.713Z,4.55
2023-07-08T01:20:48.954Z,4.32
2023-07-08T01:22:02.013Z,4.32
2023-07-08T01:22:53.181Z,4.70
2023-07-08T01:23:43.917Z,4.55
2023-07-08T01:24:39.516Z,4.60
2023-07-08T01:25:30.587Z,3.92
2023-07-08T01:26:26.007Z,4.38
2023-07-08T01:27:20.569Z,3.65
2023-07-08T01:28:11.632Z,3.97
2023-07-08T01:29:04.752Z,4.13
2023-07-08T01:29:55.616Z,3.70
2023-07-08T01:30:47.553Z,3.42
2023-07-08T01:31:38.833Z,3.35
2023-07-08T01:32:29.935Z,3.33
2023-07-08T01:33:23.337Z,3.38
2023-07-08T01:34:13.952Z,3.42
2023-07-08T01:35:06.128Z,3.15
2023-07-08T01:35:57.244Z,3.13
2023-07-08T01:36:56.146Z,2.78
2023-07-08T01:37:54.701Z,2.97
2023-07-08T01:38:46.291Z,2.83
2023-07-08T01:39:37.391Z,3.63
2023-07-08T01:40:35.182Z,3.20
2023-07-08T01:41:25.844Z,2.90
2023-07-08T01:42:16.504Z,3.10
2023-07-08T01:43:09.808Z,3.38
2023-07-08T01:44:01.174Z,3.03
2023-07-08T01:44:52.445Z,3.58
2023-07-08T01:45:44.009Z,2.92
2023-07-08T01:46:37.605Z,2.97
2023-07-08T01:47:28.439Z,3.15
2023-07-08T01:48:21.826Z,2.78
2023-07-08T01:49:12.593Z,3.28
2023-07-08T01:50:03.799Z,3.00
2023-07-08T01:51:02.781Z,3.08
2023-07-08T01:51:53.884Z,3.40
2023-07-08T01:52:45.140Z,3.45
2023-07-08T01:53:38.944Z,3.22
2023-07-08T01:54:29.744Z,3.67
2023-07-08T01:55:25.522Z,3.63
2023-07-08T01:56:16.738Z,3.22
2023-07-08T01:57:07.722Z,3.40
2023-07-08T01:57:58.872Z,3.25
2023-07-08T01:58:49.565Z,3.30
2023-07-08T01:59:40.269Z,3.55
2023-07-08T02:00:31.063Z,3.30
2023-07-08T02:01:22.227Z,3.25
2023-07-08T02:02:12.870Z,3.67
2023-07-08T02:03:03.773Z,3.38
2023-07-08T02:03:54.679Z,3.25
2023-07-08T02:04:48.021Z,3.05
2023-07-08T02:05:39.134Z,3.30
2023-07-08T02:06:30.355Z,3.70
2023-07-08T02:07:30.904Z,3.50
2023-07-08T02:08:22.308Z,3.40
2023-07-08T02:09:13.038Z,3.03
2023-07-08T02:10:03.901Z,4.25
2023-07-08T02:10:58.554Z,2.78
2023-07-08T02:11:49.612Z,3.13
2023-07-08T02:12:40.644Z,3.22
2023-07-08T02:13:31.354Z,3.40
2023-07-08T02:14:23.248Z,3.85
2023-07-08T02:15:17.208Z,3.25
2023-07-08T02:16:08.667Z,3.30
2023-07-08T02:16:59.438Z,2.88
2023-07-08T02:17:51.542Z,3.33
2023-07-08T02:18:42.363Z,3.30
2023-07-08T02:19:33.099Z,3.13
2023-07-08T02:20:24.239Z,3.50
2023-07-08T02:21:15.002Z,3.42
2023-07-08T02:22:05.815Z,3.55
2023-07-08T02:22:56.890Z,3.65
2023-07-08T02:23:51.432Z,3.20
2023-07-08T02:24:42.098Z,3.45
2023-07-08T02:25:32.858Z,3.25
2023-07-08T02:26:23.555Z,3.70
2023-07-08T02:27:14.236Z,3.08
2023-07-08T02:28:05.116Z,2.92
2023-07-08T02:28:55.944Z,3.22
2023-07-08T02:29:46.803Z,3.40
2023-07-08T02:30:38.586Z,3.55
2023-07-08T02:31:29.413Z,2.95
2023-07-08T02:32:20.552Z,3.60
2023-07-08T02:33:11.416Z,3.28
2023-07-08T02:34:05.191Z,3.30
2023-07-08T02:34:56.028Z,3.20
2023-07-08T02:35:46.999Z,3.00
2023-07-08T02:36:39.799Z,3.35
2023-07-08T02:37:31.228Z,3.13
2023-07-08T02:38:22.334Z,3.38
2023-07-08T02:39:13.179Z,3.35
2023-07-08T02:40:04.832Z,3.10
2023-07-08T02:40:55.654Z,3.03
2023-07-08T02:41:46.536Z,3.35
2023-07-08T02:42:37.203Z,3.00
2023-07-08T02:44:20.037Z,3.25
2023-07-08T02:45:13.803Z,3.20
2023-07-08T02:46:04.726Z,3.25
2023-07-08T02:46:58.216Z,3.42
2023-07-08T02:47:49.114Z,3.47
2023-07-08T02:48:39.972Z,3.03
2023-07-08T02:49:31.162Z,3.63
2023-07-08T02:50:22.249Z,3.05
2023-07-08T02:51:12.887Z,3.42
2023-07-08T02:52:03.930Z,3.42
2023-07-08T02:52:54.836Z,3.20
2023-07-08T02:53:45.710Z,3.92
2023-07-08T02:54:36.685Z,3.45
2023-07-08T02:55:27.424Z,3.22
2023-07-08T02:56:18.481Z,3.10
2023-07-08T02:57:09.356Z,3.45
2023-07-08T02:58:00.448Z,3.75
2023-07-08T02:58:51.159Z,3.47
2023-07-08T02:59:41.973Z,3.35
2023-07-08T03:00:32.830Z,3.28
2023-07-08T03:01:24.474Z,3.53
2023-07-08T03:02:15.647Z,3.17
2023-07-08T03:04:01.155Z,3.05
2023-07-08T03:04:52.337Z,3.00
2023-07-08T03:05:43.243Z,3.20
2023-07-08T03:06:34.116Z,4.00
2023-07-08T03:07:24.955Z,3.00
2023-07-08T03:08:15.643Z,3.55
2023-07-08T03:09:06.525Z,3.05
2023-07-08T03:09:57.211Z,3.47
2023-07-08T03:10:56.671Z,3.15
2023-07-08T03:11:47.552Z,4.07
2023-07-08T03:12:39.048Z,3.22
2023-07-08T03:13:30.805Z,4.00
2023-07-08T03:14:21.543Z,3.10
2023-07-08T03:15:12.119Z,3.20
2023-07-08T03:16:03.701Z,3.05
2023-07-08T03:17:45.391Z,3.05
2023-07-08T03:18:40.041Z,3.33
2023-07-08T03:19:31.028Z,3.42
2023-07-08T03:20:22.444Z,3.10
2023-07-08T03:21:15.826Z,3.33
2023-07-08T03:22:08.048Z,3.35
2023-07-08T03:23:01.117Z,3.20
2023-07-08T03:23:52.806Z,3.40
2023-07-08T03:24:47.345Z,3.30
2023-07-08T03:25:42.041Z,3.47
2023-07-08T03:27:26.065Z,4.30
2023-07-08T03:28:17.743Z,3.83
2023-07-08T03:29:15.413Z,3.40
2023-07-08T03:30:07.593Z,4.22
2023-07-08T03:30:59.823Z,4.05
2023-07-08T03:31:50.760Z,4.25
2023-07-08T03:32:41.590Z,4.10
2023-07-08T03:33:32.363Z,3.70
2023-07-08T03:34:23.193Z,3.63
2023-07-08T03:35:13.916Z,3.78
2023-07-08T03:36:13.179Z,3.70
2023-07-08T03:37:05.624Z,3.17
2023-07-08T03:37:56.458Z,3.53
2023-07-08T03:38:47.162Z,3.90
2023-07-08T03:39:38.140Z,3.67
2023-07-08T03:40:29.118Z,3.47
2023-07-08T03:41:20.932Z,3.50
2023-07-08T03:42:11.876Z,3.28
2023-07-08T03:43:02.496Z,3.72
2023-07-08T03:43:55.292Z,3.10
2023-07-08T03:44:46.020Z,3.03
2023-07-08T03:45:36.908Z,3.08
2023-07-08T03:46:28.140Z,3.50
2023-07-08T03:47:18.933Z,3.38
2023-07-08T03:48:12.262Z,3.15
2023-07-08T03:49:03.611Z,3.35
2023-07-08T03:49:54.542Z,3.55
2023-07-08T03:50:45.868Z,3.08
2023-07-08T03:51:41.597Z,3.30
2023-07-08T03:52:32.480Z,3.30
2023-07-08T03:53:23.270Z,3.25
2023-07-08T03:54:16.481Z,3.45
2023-07-08T03:55:07.839Z,3.75
2023-07-08T03:56:00.540Z,3.47
2023-07-08T03:56:53.002Z,3.55
2023-07-08T03:57:46.042Z,2.80
2023-07-08T03:58:37.102Z,3.35
2023-07-08T03:59:27.874Z,3.65
2023-07-08T04:00:21.143Z,3.17
2023-07-08T04:01:21.603Z,3.00
2023-07-08T04:02:13.212Z,3.55
2023-07-08T04:03:04.227Z,4.05
2023-07-08T04:03:57.838Z,3.78
2023-07-08T04:04:48.988Z,3.83
2023-07-08T04:05:39.965Z,3.67
2023-07-08T04:06:31.099Z,3.42
2023-07-08T04:07:22.427Z,3.95
2023-07-08T04:08:13.294Z,3.45
2023-07-08T04:09:04.144Z,3.55
2023-07-08T04:09:55.152Z,3.70
2023-07-08T04:10:46.027Z,4.05
2023-07-08T04:11:36.876Z,3.80
2023-07-08T04:12:28.457Z,3.85
2023-07-08T04:13:19.251Z,3.95
2023-07-08T04:14:11.012Z,4.65
2023-07-08T04:15:02.508Z,4.15
2023-07-08T04:15:58.446Z,3.72
2023-07-08T04:16:53.980Z,4.50
2023-07-08T04:17:50.255Z,3.85
2023-07-08T04:18:41.145Z,4.15
2023-07-08T04:19:31.830Z,4.20
2023-07-08T04:20:22.871Z,4.10
2023-07-08T04:22:07.657Z,3.60
2023-07-08T04:22:58.307Z,3.85
2023-07-08T04:23:49.317Z,3.63
2023-07-08T04:24:40.393Z,3.65
2023-07-08T04:25:31.068Z,3.35
2023-07-08T04:26:21.962Z,3.72
2023-07-08T04:27:17.461Z,3.30
2023-07-08T04:28:08.149Z,3.72
2023-07-08T04:28:59.036Z,3.80
2023-07-08T04:29:50.649Z,4.05
2023-07-08T04:31:33.312Z,4.07
2023-07-08T04:32:26.925Z,3.67
2023-07-08T04:33:17.941Z,4.10
2023-07-08T04:34:09.932Z,4.10
2023-07-08T04:35:00.919Z,3.83
2023-07-08T04:35:52.058Z,3.70
2023-07-08T04:36:43.398Z,3.67
2023-07-08T04:38:26.111Z,4.35
2023-07-08T04:39:16.775Z,4.13
2023-07-08T04:40:19.733Z,4.20
2023-07-08T04:41:10.347Z,3.85
2023-07-08T04:42:01.163Z,3.90
2023-07-08T04:42:53.020Z,3.95
2023-07-08T04:43:43.813Z,3.53
2023-07-08T04:44:34.717Z,4.07
2023-07-08T04:45:25.386Z,3.72
2023-07-08T04:46:23.771Z,4.38
2023-07-08T04:47:14.997Z,4.53
2023-07-08T04:48:13.714Z,4.53
2023-07-08T04:49:06.240Z,4.25
2023-07-08T04:49:57.324Z,4.45
2023-07-08T04:50:51.356Z,3.88
2023-07-08T04:51:42.825Z,4.70
2023-07-08T04:52:33.428Z,4.60
2023-07-08T04:53:24.139Z,4.85
2023-07-08T04:54:15.599Z,4.43
2023-07-08T04:55:06.889Z,4.70
2023-07-08T04:55:57.776Z,4.60
2023-07-08T04:56:50.325Z,4.57
2023-07-08T04:57:41.410Z,4.78
2023-07-08T04:58:32.283Z,4.35
2023-07-08T04:59:25.390Z,4.53
2023-07-08T05:00:18.439Z,4.90
2023-07-08T05:01:09.662Z,4.40
2023-07-08T05:02:01.267Z,5.10
2023-07-08T05:02:51.977Z,4.60
2023-07-08T05:03:42.799Z,4.70
2023-07-08T05:04:34.453Z,4.57
2023-07-08T05:05:25.576Z,4.30
2023-07-08T05:06:16.735Z,4.53
2023-07-08T05:07:07.491Z,5.93
2023-07-08T05:07:58.214Z,4.88
2023-07-08T05:08:48.875Z,5.95
2023-07-08T05:09:39.515Z,5.05
2023-07-08T05:10:30.504Z,4.95
2023-07-08T05:11:21.289Z,4.65
2023-07-08T05:12:11.995Z,4.78
2023-07-08T05:13:03.067Z,4.80
2023-07-08T05:13:54.107Z,4.35
2023-07-08T05:14:44.708Z,5.45
2023-07-08T05:15:36.722Z,4.80
2023-07-08T05:16:27.689Z,5.00
2023-07-08T05:17:19.432Z,4.38
2023-07-08T05:18:10.261Z,5.00
2023-07-08T05:19:01.023Z,5.15
2023-07-08T05:19:52.769Z,4.40
2023-07-08T05:21:35.979Z,4.78
2023-07-08T05:22:27.980Z,4.25
2023-07-08T05:23:18.930Z,5.03
2023-07-08T05:24:09.680Z,4.57
2023-07-08T05:25:00.992Z,4.70
2023-07-08T05:25:52.070Z,4.82
2023-07-08T05:26:42.754Z,4.55
2023-07-08T05:27:36.274Z,4.20
2023-07-08T05:28:27.372Z,4.50
2023-07-08T05:29:18.117Z,3.90
2023-07-08T05:30:15.360Z,5.22
2023-07-08T05:31:06.418Z,4.88
2023-07-08T05:31:56.980Z,5.20
2023-07-08T05:32:47.853Z,5.10
2023-07-08T05:33:38.689Z,4.63
2023-07-08T05:34:29.409Z,5.00
2023-07-08T05:35:20.262Z,4.88
2023-07-08T05:36:11.518Z,5.05
2023-07-08T05:37:02.277Z,4.63
2023-07-08T05:37:52.991Z,5.88
2023-07-08T05:38:43.791Z,4.65
2023-07-08T05:39:35.637Z,5.40
2023-07-08T05:40:26.500Z,4.35
2023-07-08T05:41:17.098Z,4.47
2023-07-08T05:42:08.134Z,4.80
2023-07-08T05:42:59.214Z,4.53
2023-07-08T05:43:49.959Z,5.00
2023-07-08T05:44:40.623Z,4.40
2023-07-08T05:45:31.544Z,5.07
2023-07-08T05:46:22.512Z,4.60
2023-07-08T05:47:13.939Z,5.47
2023-07-08T05:48:55.801Z,4.85
2023-07-08T05:49:47.144Z,4.60
2023-07-08T05:50:37.918Z,4.32
2023-07-08T05:51:28.830Z,4.45
2023-07-08T05:52:19.639Z,5.07
2023-07-08T05:53:11.473Z,4.75
2023-07-08T05:54:52.831Z,5.03
2023-07-08T05:55:43.811Z,4.50
2023-07-08T05:56:35.083Z,5.55
2023-07-08T05:57:25.710Z,4.80
2023-07-08T05:58:25.942Z,5.15
2023-07-08T05:59:17.531Z,5.07
2023-07-08T06:00:09.653Z,5.63
2023-07-08T06:01:03.665Z,4.75
2023-07-08T06:01:54.788Z,5.40
2023-07-08T06:02:46.050Z,4.53
2023-07-08T06:03:38.543Z,5.43
2023-07-08T06:04:29.402Z,5.57
2023-07-08T06:05:20.492Z,5.32
2023-07-08T06:06:11.354Z,5.53
2023-07-08T06:07:02.115Z,4.80
2023-07-08T06:07:52.799Z,5.00
2023-07-08T06:08:43.766Z,4.85
2023-07-08T06:09:35.108Z,5.05
2023-07-08T06:10:26.130Z,5.03
2023-07-08T06:11:17.736Z,4.90
2023-07-08T06:12:08.909Z,4.80
2023-07-08T06:12:59.663Z,5.00
2023-07-08T06:13:50.547Z,5.22
2023-07-08T06:14:41.439Z,5.38
2023-07-08T06:15:32.326Z,4.97
2023-07-08T06:17:19.066Z,5.07
2023-07-08T06:18:10.204Z,5.25
2023-07-08T06:19:01.509Z,5.75
2023-07-08T06:19:52.410Z,4.80
2023-07-08T06:20:43.163Z,5.18
2023-07-08T06:21:34.254Z,5.05
2023-07-08T06:22:45.475Z,5.05
2023-07-08T06:23:36.069Z,4.93
2023-07-08T06:24:26.928Z,5.15
2023-07-08T06:25:17.470Z,5.43
2023-07-08T06:26:08.256Z,4.70
2023-07-08T06:27:01.619Z,5.28
2023-07-08T06:27:54.588Z,5.05
2023-07-08T06:28:45.744Z,5.38
2023-07-08T06:29:36.777Z,5.28
2023-07-08T06:30:27.749Z,5.20
2023-07-08T06:31:18.364Z,4.68
2023-07-08T06:32:09.879Z,4.90
2023-07-08T06:33:01.698Z,4.68
2023-07-08T06:34:43.186Z,5.07
2023-07-08T06:35:34.066Z,5.35
2023-07-08T06:36:25.145Z,5.00
2023-07-08T06:37:16.304Z,5.35
2023-07-08T06:38:07.968Z,4.95
2023-07-08T06:39:49.916Z,4.88
2023-07-08T06:40:40.880Z,4.47
2023-07-08T06:41:31.744Z,5.32
2023-07-08T06:42:22.602Z,4.90
2023-07-08T06:43:23.044Z,4.75
2023-07-08T06:44:19.949Z,5.63
2023-07-08T06:45:11.524Z,5.60
2023-07-08T06:46:02.474Z,4.90
2023-07-08T06:46:53.377Z,4.80
2023-07-08T06:47:44.521Z,4.70
2023-07-08T06:48:35.521Z,5.10
2023-07-08T06:49:26.298Z,5.03
2023-07-08T06:50:17.218Z,5.22
2023-07-08T06:51:08.427Z,4.68
2023-07-08T06:52:00.986Z,5.20
2023-07-08T06:52:51.955Z,4.40
2023-07-08T06:53:42.631Z,5.43
2023-07-08T06:54:33.456Z,5.03
2023-07-08T06:55:24.906Z,5.47
2023-07-08T06:56:15.550Z,5.53
2023-07-08T06:57:06.667Z,5.00
2023-07-08T06:58:48.534Z,4.85
2023-07-08T06:59:39.301Z,4.88
2023-07-08T07:00:30.071Z,5.70
2023-07-08T07:01:20.980Z,4.63
2023-07-08T07:02:11.741Z,5.00
2023-07-08T07:03:02.808Z,4.95
2023-07-08T07:03:53.785Z,4.63
2023-07-08T07:04:45.010Z,5.32
2023-07-08T07:05:35.896Z,5.68
2023-07-08T07:06:27.241Z,5.13
2023-07-08T07:07:20.423Z,5.28
2023-07-08T07:08:11.675Z,5.32
2023-07-08T07:09:02.719Z,5.18
2023-07-08T07:09:55.233Z,5.40
2023-07-08T07:10:46.140Z,4.78
2023-07-08T07:11:36.836Z,5.10
2023-07-08T07:12:28.125Z,4.90
2023-07-08T07:13:19.094Z,4.57
2023-07-08T07:15:04.641Z,5.47
2023-07-08T07:15:55.828Z,4.93
2023-07-08T07:16:58.436Z,5.10
2023-07-08T07:17:58.078Z,4.80
2023-07-08T07:18:51.132Z,5.03
2023-07-08T07:19:41.811Z,4.85
2023-07-08T07:20:34.350Z,4.57
2023-07-08T07:21:25.424Z,4.95
2023-07-08T07:22:16.566Z,4.68
2023-07-08T07:23:07.360Z,5.03
2023-07-08T07:23:58.197Z,5.05
2023-07-08T07:24:49.685Z,5.38
2023-07-08T07:25:40.773Z,5.38
2023-07-08T07:26:31.710Z,4.90
2023-07-08T07:27:22.646Z,4.55
2023-07-08T07:28:17.671Z,5.15
2023-07-08T07:29:08.373Z,4.93
2023-07-08T07:30:02.137Z,5.03
2023-07-08T07:30:59.074Z,4.65
2023-07-08T07:31:50.374Z,4.70
2023-07-08T07:32:42.545Z,5.32
2023-07-08T07:33:33.400Z,5.18
2023-07-08T07:34:24.578Z,4.75
2023-07-08T07:35:16.281Z,4.80
2023-07-08T07:36:07.255Z,5.00
2023-07-08T07:36:58.352Z,4.80
2023-07-08T07:37:49.447Z,4.80
2023-07-08T07:38:40.393Z,5.47
2023-07-08T07:39:31.072Z,4.55
2023-07-08T07:40:21.825Z,4.90
2023-07-08T07:41:13.901Z,4.88
2023-07-08T07:42:05.018Z,4.82
2023-07-08T07:42:55.740Z,4.72
2023-07-08T07:43:46.574Z,4.85
2023-07-08T07:44:40.519Z,4.70
2023-07-08T07:45:31.452Z,5.72
2023-07-08T07:46:23.062Z,4.82
2023-07-08T07:47:16.581Z,4.80
2023-07-08T07:48:07.531Z,4.60
2023-07-08T07:48:58.477Z,4.78
2023-07-08T07:49:49.186Z,4.78
2023-07-08T07:50:45.080Z,4.93
2023-07-08T07:51:36.009Z,4.57
2023-07-08T07:52:27.052Z,4.72
2023-07-08T07:53:18.779Z,4.35
2023-07-08T07:54:10.968Z,4.32
2023-07-08T07:55:02.671Z,5.13
2023-07-08T07:55:58.756Z,5.43
2023-07-08T07:56:49.594Z,4.65
2023-07-08T07:57:41.243Z,4.93
2023-07-08T07:58:32.473Z,4.50
2023-07-08T07:59:23.590Z,4.75
2023-07-08T08:00:15.270Z,4.53
2023-07-08T08:01:07.750Z,4.32
2023-07-08T08:01:58.895Z,4.57
2023-07-08T08:02:50.023Z,4.95
2023-07-08T08:03:40.946Z,4.53
2023-07-08T08:04:31.589Z,5.32
2023-07-08T08:05:22.386Z,4.68
2023-07-08T08:06:13.467Z,5.28
2023-07-08T08:07:04.616Z,4.65
2023-07-08T08:07:55.337Z,4.53
2023-07-08T08:08:46.853Z,4.70
2023-07-08T08:09:38.760Z,4.50
2023-07-08T08:10:29.693Z,4.30
2023-07-08T08:11:21.081Z,5.03
2023-07-08T08:12:12.874Z,4.20
2023-07-08T08:13:04.341Z,4.72
2023-07-08T08:13:55.495Z,4.78
2023-07-08T08:14:47.223Z,4.97
2023-07-08T08:15:38.641Z,4.85
2023-07-08T08:16:29.275Z,4.68
2023-07-08T08:17:20.622Z,4.53
2023-07-08T08:18:11.606Z,4.95
2023-07-08T08:19:02.330Z,4.57
2023-07-08T08:19:53.176Z,4.63
2023-07-08T08:20:44.213Z,3.90
2023-07-08T08:21:35.003Z,4.55
2023-07-08T08:22:26.167Z,4.88
2023-07-08T08:23:17.168Z,4.95
2023-07-08T08:24:08.052Z,4.32
2023-07-08T08:24:58.833Z,4.93
2023-07-08T08:25:51.373Z,4.40
2023-07-08T08:26:42.371Z,4.90
2023-07-08T08:27:33.355Z,4.72
2023-07-08T08:28:24.216Z,4.78
2023-07-08T08:29:14.897Z,5.25
2023-07-08T08:30:07.164Z,4.68
2023-07-08T08:30:58.170Z,4.57
2023-07-08T08:31:48.981Z,4.75
2023-07-08T08:32:40.097Z,5.22
2023-07-08T08:34:21.977Z,4.35
2023-07-08T08:35:13.111Z,4.63
2023-07-08T08:36:04.361Z,4.43
2023-07-08T08:37:47.944Z,3.88
2023-07-08T08:38:38.589Z,4.30
2023-07-08T08:39:31.308Z,4.30
2023-07-08T08:40:22.651Z,4.80
2023-07-08T08:41:15.990Z,4.82
2023-07-08T08:42:25.169Z,4.70
2023-07-08T08:43:21.908Z,4.65
2023-07-08T08:44:18.329Z,4.78
2023-07-08T08:45:14.455Z,5.05
2023-07-08T08:46:11.354Z,4.93
2023-07-08T08:47:02.319Z,4.50
2023-07-08T08:47:59.850Z,4.47
2023-07-08T08:49:23.343Z,4.57
2023-07-08T08:51:11.820Z,4.80
2023-07-08T08:52:03.014Z,4.32
2023-07-08T08:52:56.196Z,4.85
2023-07-08T08:53:48.123Z,4.32
2023-07-08T08:54:40.568Z,4.55
2023-07-08T08:55:32.120Z,5.10
2023-07-08T08:56:36.002Z,4.47
2023-07-08T08:57:43.323Z,4.82
2023-07-08T08:58:34.231Z,4.40
2023-07-08T08:59:45.260Z,4.25
2023-07-08T09:00:59.936Z,4.18
2023-07-08T09:01:51.423Z,4.40
2023-07-08T09:03:14.887Z,4.70
2023-07-08T09:04:18.125Z,5.28
2023-07-08T09:05:13.842Z,4.28
2023-07-08T09:06:26.856Z,4.95
2023-07-08T09:07:20.588Z,4.10
2023-07-08T09:08:21.295Z,4.85
2023-07-08T09:09:38.629Z,4.45
2023-07-08T09:10:45.758Z,4.93
2023-07-08T09:12:04.273Z,4.57
2023-07-08T09:12:58.388Z,4.65
2023-07-08T09:13:53.816Z,4.78
2023-07-08T09:14:44.815Z,5.05
2023-07-08T09:15:35.801Z,4.50
2023-07-08T09:16:46.130Z,4.63
2023-07-08T09:17:38.027Z,5.13
2023-07-08T09:18:34.938Z,4.03
2023-07-08T09:19:49.294Z,4.35
2023-07-08T09:20:40.655Z,4.68
2023-07-08T09:22:05.883Z,4.38
2023-07-08T09:23:14.404Z,4.70
2023-07-08T09:24:12.471Z,4.68
2023-07-08T09:25:33.928Z,4.82
2023-07-08T09:26:26.321Z,4.30
2023-07-08T09:27:17.378Z,4.35
2023-07-08T09:28:09.319Z,4.38
2023-07-08T09:29:00.557Z,4.20
2023-07-08T09:29:51.411Z,4.32
2023-07-08T09:30:42.209Z,4.45
2023-07-08T09:31:37.920Z,4.43
2023-07-08T09:32:29.883Z,3.65
2023-07-08T09:33:20.824Z,4.30
2023-07-08T09:34:24.068Z,4.10
2023-07-08T09:35:39.963Z,4.60
2023-07-08T09:36:30.683Z,4.95
2023-07-08T09:37:34.082Z,4.35
2023-07-08T09:38:25.319Z,3.83
2023-07-08T09:39:21.727Z,4.82
2023-07-08T09:40:23.684Z,4.25
2023-07-08T09:41:15.631Z,3.78
2023-07-08T09:42:09.125Z,4.07
2023-07-08T09:43:02.369Z,4.57
2023-07-08T09:44:04.862Z,4.25
2023-07-08T09:45:02.682Z,4.38
2023-07-08T09:46:49.355Z,4.43
2023-07-08T09:47:41.882Z,3.55
2023-07-08T09:48:37.506Z,3.58
2023-07-08T09:49:28.627Z,3.75
2023-07-08T09:50:30.900Z,3.72
2023-07-08T09:51:21.991Z,3.25
2023-07-08T09:52:13.335Z,2.90
2023-07-08T09:53:06.167Z,3.58
2023-07-08T09:53:57.312Z,3.30
2023-07-08T09:54:48.823Z,3.60
2023-07-08T09:55:39.631Z,3.60
2023-07-08T09:56:31.567Z,3.53
2023-07-08T09:57:26.616Z,3.47
2023-07-08T09:58:25.331Z,3.33
2023-07-08T09:59:16.296Z,3.90
2023-07-08T10:00:14.312Z,3.40
2023-07-08T10:01:15.104Z,3.40
2023-07-08T10:02:20.565Z,3.33
2023-07-08T10:03:22.730Z,3.60
2023-07-08T10:04:13.961Z,3.50
2023-07-08T10:05:28.319Z,3.38
2023-07-08T10:06:25.843Z,3.38
2023-07-08T10:07:18.191Z,3.22
2023-07-08T10:08:16.812Z,3.40
2023-07-08T10:09:20.750Z,2.92
2023-07-08T10:10:17.322Z,3.30
2023-07-08T10:11:15.079Z,2.95
2023-07-08T10:12:12.223Z,3.40
2023-07-08T10:13:21.448Z,3.20
2023-07-08T10:14:28.517Z,3.10
2023-07-08T10:15:49.708Z,3.20
2023-07-08T10:16:41.260Z,3.25
2023-07-08T10:17:32.476Z,3.20
2023-07-08T10:18:30.407Z,2.85
2023-07-08T10:19:22.360Z,3.20
2023-07-08T10:20:14.166Z,3.08
2023-07-08T10:21:23.072Z,3.05
2023-07-08T10:22:32.408Z,3.35
2023-07-08T10:23:52.088Z,3.25
2023-07-08T10:25:01.591Z,3.40
2023-07-08T10:26:09.296Z,2.95
2023-07-08T10:27:29.635Z,3.40
2023-07-08T10:28:40.339Z,3.25
2023-07-08T10:29:50.227Z,2.90
2023-07-08T10:31:04.390Z,2.85
2023-07-08T10:32:13.958Z,3.63
2023-07-08T10:33:38.735Z,3.33
2023-07-08T10:34:37.957Z,3.10
2023-07-08T10:35:36.992Z,3.35
2023-07-08T10:37:04.451Z,3.00
2023-07-08T10:38:14.024Z,3.08
2023-07-08T10:39:23.356Z,3.30
2023-07-08T10:40:24.069Z,3.10
2023-07-08T10:41:40.916Z,2.80
2023-07-08T10:42:56.031Z,3.30
2023-07-08T10:43:57.203Z,3.38
2023-07-08T10:45:34.400Z,2.90
2023-07-08T10:46:53.386Z,3.42
2023-07-08T10:48:27.610Z,3.33
2023-07-08T10:49:50.396Z,3.60
2023-07-08T10:51:00.688Z,3.17
2023-07-08T10:52:25.085Z,3.22
2023-07-08T10:53:36.171Z,3.63
2023-07-08T10:54:33.143Z,3.38
2023-07-08T10:55:38.784Z,3.80
2023-07-08T10:56:52.277Z,3.55
2023-07-08T10:58:14.225Z,3.50
2023-07-08T10:59:54.775Z,3.70
2023-07-08T11:01:04.716Z,4.00
2023-07-08T11:02:04.933Z,3.75
2023-07-08T11:03:20.802Z,3.33
2023-07-08T11:04:33.544Z,3.25
2023-07-08T11:05:38.000Z,3.13
2023-07-08T11:06:59.481Z,3.63
2023-07-08T11:07:54.029Z,3.58
2023-07-08T11:08:57.704Z,3.65
2023-07-08T11:09:56.162Z,3.22
2023-07-08T11:11:14.784Z,3.53
2023-07-08T11:12:19.410Z,3.55
2023-07-08T11:13:19.485Z,3.22
2023-07-08T11:14:53.084Z,3.60
2023-07-08T11:15:47.372Z,3.75
2023-07-08T11:16:46.744Z,2.90
2023-07-08T11:17:55.558Z,3.58
2023-07-08T11:19:05.224Z,3.90
2023-07-08T11:20:20.335Z,3.38
2023-07-08T11:21:20.735Z,4.13
2023-07-08T11:22:14.152Z,3.42
2023-07-08T11:23:27.831Z,3.50
2023-07-08T11:24:21.779Z,3.40
2023-07-08T11:25:19.965Z,3.97
2023-07-08T11:26:26.022Z,3.60
2023-07-08T11:27:28.737Z,4.25
2023-07-08T11:28:23.720Z,3.60
2023-07-08T11:29:27.092Z,3.60
2023-07-08T11:30:25.400Z,3.78
2023-07-08T11:31:16.981Z,3.58
2023-07-08T11:32:14.217Z,3.70
2023-07-08T11:33:10.936Z,3.88
2023-07-08T11:34:02.955Z,3.60
2023-07-08T11:34:56.024Z,3.40
2023-07-08T11:36:00.017Z,3.85
2023-07-08T11:36:52.563Z,3.33
2023-07-08T11:37:44.026Z,3.38
2023-07-08T11:38:39.656Z,3.67
2023-07-08T11:39:35.601Z,3.60
2023-07-08T11:40:26.468Z,3.95
2023-07-08T11:41:20.906Z,4.10
2023-07-08T11:42:14.563Z,3.63
2023-07-08T11:43:07.507Z,3.70
2023-07-08T11:44:04.011Z,3.90
2023-07-08T11:44:58.063Z,3.88
2023-07-08T11:45:52.074Z,4.20
2023-07-08T11:46:56.103Z,3.50
2023-07-08T11:47:50.092Z,3.28
2023-07-08T11:48:48.911Z,3.70
2023-07-08T11:49:41.653Z,3.67
2023-07-08T11:50:41.245Z,4.88
2023-07-08T11:51:38.378Z,4.00
2023-07-08T11:52:31.562Z,3.58
2023-07-08T11:53:31.540Z,3.53
2023-07-08T11:54:31.881Z,4.10
2023-07-08T11:55:31.012Z,4.07
2023-07-08T11:56:24.615Z,3.67
2023-07-08T11:57:43.127Z,4.55
2023-07-08T11:58:52.037Z,3.97
2023-07-08T11:59:43.147Z,3.58
2023-07-08T12:00:34.882Z,3.85
2023-07-08T12:01:47.776Z,3.70
2023-07-08T12:02:57.231Z,4.18
2023-07-08T12:03:55.409Z,3.35
2023-07-08T12:04:58.432Z,3.67
2023-07-08T12:05:52.194Z,3.45
2023-07-08T12:06:49.234Z,3.58
2023-07-08T12:07:43.670Z,4.03
2023-07-08T12:08:38.963Z,4.18
2023-07-08T12:09:37.834Z,3.83
2023-07-08T12:10:36.465Z,3.72
2023-07-08T12:11:36.177Z,4.05
2023-07-08T12:12:36.925Z,3.65
2023-07-08T12:13:29.734Z,3.95
2023-07-08T12:14:22.519Z,3.88
2023-07-08T12:15:27.768Z,4.50
2023-07-08T12:16:19.322Z,3.72
2023-07-08T12:17:13.431Z,3.90
2023-07-08T12:18:17.374Z,3.80
2023-07-08T12:19:14.729Z,3.78
2023-07-08T12:20:14.289Z,3.85
2023-07-08T12:21:05.990Z,3.70
2023-07-08T12:21:57.217Z,3.60
2023-07-08T12:22:48.440Z,3.75
2023-07-08T12:23:44.762Z,3.63
2023-07-08T12:24:35.813Z,4.28
2023-07-08T12:25:33.513Z,3.67
2023-07-08T12:26:25.987Z,4.38
2023-07-08T12:27:16.764Z,3.72
2023-07-08T12:28:07.794Z,3.70